Hlavní strana
METAR-TAF:

METAR-TAF

Letiště :

Columbia, Jižní Karolína, Spojené státy americké

zeměpisná šířka: 33-58-15N, zeměpisná délka: 080-59-40W, výška: 64 m

Aktuální stav počasí

Zpráva byla vytvořena před 23 minutami, v 00:53 UTC
Bezvětří
Teplota 8°C
Vlhkost vzduchu 93%
Tlak 1014 hPa
Viditelnost: 12.9 km
Zataženo ve výšce 8500 ft

METAR: KCUB 200053Z AUTO 00000KT 8SM OVC085 08/07 A2993 RMK AO2 SLP134 T00830067

Čas: 20:16 (01:16 UTC)

Předpověď počasí

Zpráva byla vytvořena před 1 hodinou a 53 minutami, v 23:23 UTC
Předpověď platná od 20 v 00 UTC do 20 v 24 UTC
Severní vítr kt
Viditelnost: 10 km
Polojasno ve výšce 8000 ft
Od 20 v 0300 UTC
Severní vítr kt
Viditelnost: 10 km
Skoro jasno ve výšce 8000 ft
Dočasný
od 20 v 09 UTC do 20 v 12 UTC
Viditelnost: 8.0 km
Polojasno ve výšce 1000 ft
kouřmo
Od 20 v 1500 UTC
Severní vítr 6 kt
Viditelnost: 10 km
Jasno

TAF: KCUB 192323Z 2000/2024 00000KT P6SM SCT080 FM200300 00000KT P6SM FEW080 TEMPO 2009/2012 5SM BR SCT010 FM201500 35006KT P6SM SKC

Stav a předpovědi počasí z více než 4 000 letišť (zprávy METAR a TAF).

Červené a žluté tečky na mapě představují dostupné meteorologické stanice.

Když kurzor umístíte na tečku, zobrazí se název stanice.

Pak kliknutím zobrazíte stav a předpověď počasí.

Chcete-li změnit mapu, kliknutím na zelené tlačítko se znaménkem +mapu přiblížíte, kliknutím na zelené tlačítko se znaménkem – mapu oddálíte a kliknutím na zelené šipky přejdete na sousední mapy.


METAR-TAF: